D/T METAR WX W/DIR W/SPE G/SPE TEMP DEWP
20/06/19 15:30 EIWF 201430Z 27008KT 190V310 9999 FEW032 ///// Q1013 W (270°) 9.2mph 0°C 0°C
20/06/19 15:00 EIWF 201400Z 26014G24KT 200V300 9999 SCT034 ///// Q1013 W (260°) 16.1mph 27.6mph 0°C 0°C
20/06/19 14:30 EIWF 201330Z 25007G17KT 9999 SCT026 ///// Q1013 WSW (250°) 8.1mph 19.6mph 0°C 0°C
20/06/19 14:00 EIWF 201300Z VRB03KT 9999 SCT024 ///// Q1013 N (0°) 3.5mph 0°C 0°C
20/06/19 13:30 EIWF 201230Z 24014KT 9999 VCSH SCT022 SCT034 ///// Q1013 VCSH WSW (240°) 16.1mph 0°C 0°C
20/06/19 13:00 EIWF 201200Z 24012KT 210V280 9999 SCT026 ///// Q1013 WSW (240°) 13.8mph 0°C 0°C
20/06/19 12:30 EIWF 201130Z 25008KT 210V290 9999 VCSH FEW006 SCT033 ///// Q1013 VCSH WSW (250°) 9.2mph 0°C 0°C
20/06/19 12:00 EIWF 201100Z 24013KT 210V290 9999 VCSH SCT024 SCT033 ///// Q1012 VCSH WSW (240°) 15.0mph 0°C 0°C
20/06/19 11:30 EIWF 201030Z 24012KT 200V270 9999 SCT024 SCT033 ///// Q1012 WSW (240°) 13.8mph 0°C 0°C
20/06/19 11:00 EIWF 201000Z 24010KT 200V340 9999 SCT026 SCT033 ///// Q1012 WSW (240°) 11.5mph 0°C 0°C
20/06/19 10:30 EIWF 200930Z 24008KT 200V280 9999 SCT028 SCT033 ///// Q1012 WSW (240°) 9.2mph 0°C 0°C
20/06/19 10:00 EIWF 200900Z 29005KT 250V340 9999 SCT026 ///// Q1012 WNW (290°) 5.8mph 0°C 0°C
20/06/19 09:30 EIWF 200830Z 30005KT 250V340 9999 SCT040 ///// Q1012 WNW (300°) 5.8mph 0°C 0°C
20/06/19 09:00 EIWF 200800Z 27005KT 210V330 9999 SCT046 ///// Q1012 W (270°) 5.8mph 0°C 0°C
19/06/19 21:30 EIWF 192030Z VRB03KT 9999 FEW022CB BKN055 ///// Q1010 R21/1///// N (0°) 3.5mph 0°C 0°C
19/06/19 21:00 EIWF 192000Z 29006KT 250V320 8000 VCSH SCT022CB BKN055 ///// Q1010 RERA R21/1///// VCSH WNW (290°) 6.9mph 0°C 0°C
19/06/19 20:30 EIWF 191930Z 25006KT 230V290 9999 -SHRA SCT020CB BKN055 ///// Q1010 -SHRA WSW (250°) 6.9mph 0°C 0°C
19/06/19 20:00 EIWF 191900Z VRB02KT 9999 VCSH SCT020CB BKN055 ///// Q1010 VCSH N (0°) 2.3mph 0°C 0°C
19/06/19 19:30 EIWF 191830Z VRB02KT 9999 VCSH FEW020CB BKN056 ///// Q1010 VCSH N (0°) 2.3mph 0°C 0°C
19/06/19 19:00 EIWF 191800Z 33005KT 9999 VCSH SCT020CB BKN052 ///// Q1010 VCSH NNW (330°) 5.8mph 0°C 0°C
19/06/19 18:30 EIWF 191730Z 30009KT 270V340 9000 -SHRA SCT020CB SCT034 BKN055 ///// Q1010 -SHRA WNW (300°) 10.4mph 0°C 0°C
19/06/19 18:00 EIWF 191700Z 28007KT 240V310 9999 VCSH SCT020CB BKN040 ///// Q1010 VCSH W (280°) 8.1mph 0°C 0°C
19/06/19 17:30 EIWF 191630Z 28011KT 240V320 9999 -SHRA SCT020CB BKN041 ///// Q1009 -SHRA W (280°) 12.7mph 0°C 0°C
19/06/19 17:00 EIWF 191600Z 24011KT 220V280 9999 VCSH SCT020CB BKN055 ///// Q1009 VCSH WSW (240°) 12.7mph 0°C 0°C
19/06/19 16:30 EIWF 191530Z 25012KT 220V300 9999 FEW020CB SCT043 BKN054 ///// Q1010 WSW (250°) 13.8mph 0°C 0°C
19/06/19 16:00 EIWF 191500Z 26011KT 200V300 9999 FEW020CB SCT035 BKN050 ///// Q1010 W (260°) 12.7mph 0°C 0°C
19/06/19 15:30 EIWF 191430Z 24012KT 200V280 9999 FEW018CB SCT040 ///// Q1010 WSW (240°) 13.8mph 0°C 0°C
19/06/19 15:00 EIWF 191400Z 24013KT 210V270 9999 FEW018CB SCT040 ///// Q1010 WSW (240°) 15.0mph 0°C 0°C
19/06/19 14:30 EIWF 191330Z 24011KT 210V290 9999 FEW030 SCT050 ///// Q1010 WSW (240°) 12.7mph 0°C 0°C
19/06/19 14:00 EIWF 191300Z 25012KT 220V280 9999 SCT040 ///// Q1010 WSW (250°) 13.8mph 0°C 0°C
19/06/19 13:30 EIWF 191230Z 24010KT 210V270 9999 FEW030 BKN042 ///// Q1010 WSW (240°) 11.5mph 0°C 0°C
19/06/19 13:00 EIWF 191200Z 24011KT 200V270 9999 FEW030 SCT048 ///// Q1010 WSW (240°) 12.7mph 0°C 0°C
19/06/19 12:30 EIWF 191130Z 23011KT 210V270 9999 FEW030 SCT045 ///// Q1010 SW (230°) 12.7mph 0°C 0°C
19/06/19 12:00 EIWF 191100Z 24007KT 220V280 9999 SCT030 SCT048 ///// Q1010 WSW (240°) 8.1mph 0°C 0°C
19/06/19 11:30 EIWF 191030Z 26006KT 210V320 9999 SCT030 ///// Q1010 W (260°) 6.9mph 0°C 0°C
19/06/19 11:00 EIWF 191000Z 32006KT 280V010 9999 FEW022 SCT046 ///// Q1010 NW (320°) 6.9mph 0°C 0°C
19/06/19 10:30 EIWF 190930Z 33005KT 280V010 9999 FEW021 SCT046 ///// Q1010 NNW (330°) 5.8mph 0°C 0°C
19/06/19 10:00 EIWF 190900Z 35004KT 320V030 9999 SCT020 SCT047 ///// Q1010 N (350°) 4.6mph 0°C 0°C
19/06/19 09:30 EIWF 190830Z 35004KT 300V040 CAVOK ///// Q1010 N (350°) 4.6mph 0°C 0°C
19/06/19 09:00 EIWF 190800Z 01004KT 310V050 CAVOK ///// Q1010 N (10°) 4.6mph 0°C 0°C
19/06/19 08:30 EIWF 190730Z 36005KT 320V040 CAVOK ///// Q1010 N (360°) 5.8mph 0°C 0°C
18/06/19 21:30 EIWF 182030Z VRB03KT CAVOK ///// Q1011 N (0°) 3.5mph 0°C 0°C
18/06/19 21:00 EIWF 182000Z 25006KT 220V280 CAVOK ///// Q1011 WSW (250°) 6.9mph 0°C 0°C
18/06/19 20:30 EIWF 181930Z 24007KT 200V270 CAVOK ///// Q1011 WSW (240°) 8.1mph 0°C 0°C
18/06/19 20:00 EIWF 181900Z 24007KT CAVOK ///// Q1011 WSW (240°) 8.1mph 0°C 0°C
18/06/19 19:30 EIWF 181830Z 24008KT 210V270 CAVOK ///// Q1011 WSW (240°) 9.2mph 0°C 0°C
18/06/19 19:00 EIWF 181800Z 24009KT CAVOK ///// Q1011 WSW (240°) 10.4mph 0°C 0°C
18/06/19 18:30 EIWF 181730Z 25008KT 210V290 9999 FEW040 ///// Q1012 WSW (250°) 9.2mph 0°C 0°C